Time;durP1;ratioP1;P1;durP2;ratioP2;P2;SDS_P1;SDS_P2;PMS_P1;PMS_P2;Temp;Humidity;BMP_temperature;BMP_pressure;BME280_temperature;BME280_humidity;BME280_pressure;Samples;Min_cycle;Max_cycle;Signal;HPM_P1;HPM_P2
2021/09/06 00:01:00;;;;;;;15.60;9.20;;;;;;;6.47;75.58;101800.61;1675254;84;21643;-66
2021/09/06 00:03:27;;;;;;;17.80;10.15;;;;;;;6.43;75.49;101802.87;1693343;84;20896;-65
2021/09/06 00:05:56;;;;;;;16.75;9.40;;;;;;;6.38;75.47;101800.39;1693443;84;20950;-67
2021/09/06 00:08:24;;;;;;;18.00;10.63;;;;;;;6.34;75.66;101804.41;1693477;84;20894;-67
2021/09/06 00:11:07;;;;;;;13.35;8.55;;;;;;;6.31;76.06;101801.39;1693460;84;20945;-67
2021/09/06 00:13:34;;;;;;;13.83;8.73;;;;;;;6.28;76.42;101800.63;1693284;84;21372;-67
2021/09/06 00:16:01;;;;;;;19.02;11.45;;;;;;;6.24;76.71;101805.05;1693301;84;20973;-66
2021/09/06 00:18:29;;;;;;;12.85;8.90;;;;;;;6.21;76.83;101799.91;1693349;84;21070;-69
2021/09/06 00:20:56;;;;;;;14.58;8.38;;;;;;;6.18;76.95;101807.36;1693437;84;21371;-67
2021/09/06 00:23:26;;;;;;;12.73;7.72;;;;;;;6.17;76.95;101806.93;1693373;84;20878;-67
2021/09/06 00:25:54;;;;;;;12.78;8.05;;;;;;;6.13;76.93;101805.28;1693538;84;20898;-67
2021/09/06 00:28:22;;;;;;;14.10;7.60;;;;;;;6.14;76.91;101811.37;1693453;84;20913;-67
2021/09/06 00:30:49;;;;;;;11.73;6.72;;;;;;;6.12;76.92;101802.73;1693328;84;21428;-66
2021/09/06 00:33:19;;;;;;;12.50;5.87;;;;;;;6.13;76.99;101807.03;1693502;84;20930;-67
2021/09/06 00:35:48;;;;;;;8.95;5.17;;;;;;;6.11;76.82;101805.75;1693559;84;21479;-67
2021/09/06 00:38:18;;;;;;;10.85;5.65;;;;;;;6.09;76.71;101799.75;1693371;84;20909;-67
2021/09/06 00:40:48;;;;;;;10.30;5.78;;;;;;;6.08;76.63;101807.14;1693322;84;21355;-67
2021/09/06 00:43:15;;;;;;;8.65;5.17;;;;;;;6.06;76.65;101806.31;1693258;84;20952;-67
2021/09/06 00:45:45;;;;;;;11.40;5.47;;;;;;;6.06;76.74;101806.77;1693369;84;20941;-66
2021/09/06 00:48:17;;;;;;;7.12;5.37;;;;;;;6.05;76.67;101805.03;1693620;84;22010;-66
2021/09/06 00:50:43;;;;;;;7.62;4.95;;;;;;;6.04;76.57;101805.94;1693425;84;21071;-66
2021/09/06 00:53:10;;;;;;;6.12;4.20;;;;;;;6.03;76.62;101814.66;1693438;84;21514;-67
2021/09/06 00:55:37;;;;;;;8.23;5.03;;;;;;;6.00;76.66;101815.13;1693419;84;20914;-68
2021/09/06 00:58:05;;;;;;;6.90;4.92;;;;;;;5.98;76.67;101812.13;1693670;84;20906;-67
2021/09/06 01:00:32;;;;;;;7.50;4.75;;;;;;;5.95;76.64;101811.75;1675286;84;21546;-67
2021/09/06 01:02:59;;;;;;;6.65;4.35;;;;;;;5.93;76.62;101803.53;1693454;84;21029;-67
2021/09/06 01:05:29;;;;;;;9.75;5.62;;;;;;;5.91;76.71;101810.52;1693330;84;20886;-66
2021/09/06 01:08:00;;;;;;;9.00;4.70;;;;;;;5.89;76.73;101805.36;1691674;84;20985;-66
2021/09/06 01:10:46;;;;;;;6.78;4.53;;;;;;;5.86;76.69;101804.56;1693304;84;20901;-67
2021/09/06 01:13:28;;;;;;;7.10;4.30;;;;;;;5.83;76.75;101812.45;1692815;84;21601;-66
2021/09/06 01:15:57;;;;;;;9.90;4.67;;;;;;;5.79;76.83;101812.48;1693382;84;20874;-67
2021/09/06 01:18:25;;;;;;;8.20;5.30;;;;;;;5.76;77.02;101815.17;1693521;84;20961;-67
2021/09/06 01:20:52;;;;;;;6.65;4.78;;;;;;;5.74;77.09;101813.04;1693366;84;20949;-67
2021/09/06 01:23:21;;;;;;;7.72;5.12;;;;;;;5.72;77.01;101812.66;1693285;84;21443;-66
2021/09/06 01:25:55;;;;;;;6.75;4.92;;;;;;;5.69;77.25;101817.91;1684860;84;21127;-67
2021/09/06 01:28:22;;;;;;;12.13;4.78;;;;;;;5.69;77.37;101813.59;1693553;84;20910;-66
2021/09/06 01:30:49;;;;;;;7.90;4.97;;;;;;;5.68;77.27;101820.12;1693352;84;20941;-66
2021/09/06 01:33:16;;;;;;;7.03;4.78;;;;;;;5.67;77.11;101817.08;1693695;84;20921;-66
2021/09/06 01:35:43;;;;;;;7.00;5.12;;;;;;;5.65;77.05;101823.64;1693388;84;20858;-66
2021/09/06 01:38:10;;;;;;;8.20;5.42;;;;;;;5.63;77.03;101825.87;1693575;84;21135;-66
2021/09/06 01:40:37;;;;;;;7.05;4.30;;;;;;;5.59;76.97;101824.61;1693472;84;21456;-67
2021/09/06 01:43:04;;;;;;;7.87;5.30;;;;;;;5.56;76.97;101819.92;1693246;84;21502;-67
2021/09/06 01:45:32;;;;;;;8.48;5.42;;;;;;;5.55;77.01;101819.50;1695405;84;20992;-68
2021/09/06 01:47:59;;;;;;;11.60;5.12;;;;;;;5.54;77.11;101823.84;1696433;84;21371;-66
2021/09/06 01:50:26;;;;;;;7.58;3.80;;;;;;;5.53;77.25;101823.87;1696380;83;21534;-67
2021/09/06 01:52:55;;;;;;;6.50;4.22;;;;;;;5.50;77.40;101823.94;1696244;84;20961;-66
2021/09/06 01:55:22;;;;;;;7.67;4.62;;;;;;;5.48;77.60;101825.72;1749783;82;20929;-67
2021/09/06 01:59:46;;;;;;;7.62;5.17;;;;;;;5.50;77.84;101823.48;1797771;79;22563;-67
2021/09/06 02:02:13;;;;;;;7.87;4.03;;;;;;;5.45;77.96;101830.53;1695874;84;20994;-67
2021/09/06 02:04:42;;;;;;;7.95;3.77;;;;;;;5.45;77.98;101824.45;1694877;84;22956;-67
2021/09/06 02:07:09;;;;;;;6.72;3.90;;;;;;;5.43;77.97;101829.70;1711040;84;20932;-67
2021/09/06 02:09:36;;;;;;;7.78;4.25;;;;;;;5.43;77.86;101837.96;1696082;84;20983;-68
2021/09/06 02:12:06;;;;;;;6.50;4.00;;;;;;;5.39;77.69;101835.40;1695533;83;20935;-67
2021/09/06 02:14:37;;;;;;;9.60;3.52;;;;;;;5.36;77.57;101844.57;1695733;84;20955;-68
2021/09/06 02:17:05;;;;;;;6.45;3.50;;;;;;;5.34;77.63;101842.89;1695828;84;21184;-67
2021/09/06 02:19:34;;;;;;;6.45;3.47;;;;;;;5.33;77.85;101842.45;1695476;84;20930;-66
2021/09/06 02:22:02;;;;;;;9.33;5.00;;;;;;;5.33;77.95;101845.06;1695693;84;20939;-67
2021/09/06 02:24:31;;;;;;;6.58;4.05;;;;;;;5.31;77.97;101842.92;1695311;84;20891;-67
2021/09/06 02:27:00;;;;;;;8.95;4.37;;;;;;;5.31;77.98;101845.08;1695118;83;20916;-67
2021/09/06 02:29:28;;;;;;;5.33;3.12;;;;;;;5.32;78.08;101845.51;1695668;84;21228;-67
2021/09/06 02:31:57;;;;;;;7.72;3.17;;;;;;;5.32;78.17;101845.51;1691908;84;20955;-66
2021/09/06 02:34:40;;;;;;;5.42;3.10;;;;;;;5.33;78.15;101844.61;1693028;84;21314;-67
2021/09/06 02:37:07;;;;;;;6.35;3.70;;;;;;;5.37;78.10;101846.27;1695762;84;20946;-66
2021/09/06 02:39:36;;;;;;;8.40;3.15;;;;;;;5.40;78.03;101852.73;1694703;83;21022;-67
2021/09/06 02:42:05;;;;;;;5.42;2.58;;;;;;;5.44;77.92;101852.67;1695672;84;20951;-66
2021/09/06 02:44:34;;;;;;;5.83;2.75;;;;;;;5.46;77.71;101849.14;1695575;84;20891;-67
2021/09/06 02:47:03;;;;;;;4.87;2.62;;;;;;;5.49;77.49;101856.03;1695306;84;20938;-66
2021/09/06 02:49:32;;;;;;;5.62;3.33;;;;;;;5.52;77.32;101859.45;1695872;84;20892;-69
2021/09/06 02:51:59;;;;;;;4.92;2.77;;;;;;;5.53;77.01;101867.66;1695874;83;21409;-67
2021/09/06 02:54:28;;;;;;;6.15;2.90;;;;;;;5.55;76.62;101867.18;1695799;84;21505;-66
2021/09/06 02:56:55;;;;;;;9.20;3.67;;;;;;;5.58;76.33;101864.95;1695657;84;20927;-67
2021/09/06 02:59:22;;;;;;;3.00;2.37;;;;;;;5.61;76.17;101870.97;1684964;83;20892;-66
2021/09/06 03:01:50;;;;;;;8.43;3.10;;;;;;;5.66;76.19;101877.39;1745043;82;21430;-67
2021/09/06 03:04:17;;;;;;;7.17;2.77;;;;;;;5.69;76.31;101879.06;1745163;81;20940;-68
2021/09/06 03:06:44;;;;;;;5.75;2.98;;;;;;;5.71;76.34;101879.45;1745095;81;21909;-68
2021/09/06 03:09:11;;;;;;;5.92;3.12;;;;;;;5.73;76.32;101881.58;1745164;81;21003;-69
2021/09/06 03:11:39;;;;;;;8.05;4.62;;;;;;;5.75;76.22;101884.16;1744734;82;20880;-68
2021/09/06 03:14:07;;;;;;;9.63;6.35;;;;;;;5.76;76.09;101885.90;1744445;80;20976;-68
2021/09/06 03:16:34;;;;;;;6.12;4.10;;;;;;;5.76;75.91;101882.84;1744753;80;20929;-67
2021/09/06 03:19:01;;;;;;;7.78;4.40;;;;;;;5.77;75.85;101887.14;1744637;81;21525;-67
2021/09/06 03:21:31;;;;;;;8.83;3.15;;;;;;;5.79;75.81;101888.42;1744214;81;20881;-67
2021/09/06 03:23:57;;;;;;;5.05;3.12;;;;;;;5.82;75.78;101890.95;1744877;81;21008;-67
2021/09/06 03:26:26;;;;;;;6.03;3.35;;;;;;;5.84;75.79;101895.69;1744644;81;20932;-66
2021/09/06 03:28:53;;;;;;;14.25;3.72;;;;;;;5.86;75.74;101895.67;1744620;81;20988;-67
2021/09/06 03:31:20;;;;;;;4.78;3.25;;;;;;;5.88;75.71;101900.41;1744703;81;21516;-67
2021/09/06 03:33:47;;;;;;;8.33;3.37;;;;;;;5.89;75.66;101896.90;1744768;82;20929;-71
2021/09/06 03:36:15;;;;;;;7.03;3.35;;;;;;;5.91;75.81;101901.18;1744649;81;20909;-67
2021/09/06 03:38:42;;;;;;;7.53;3.83;;;;;;;5.92;75.94;101904.22;1744604;81;20854;-68
2021/09/06 03:41:09;;;;;;;9.30;2.72;;;;;;;5.96;75.65;101903.76;1744738;81;20909;-67
2021/09/06 03:43:38;;;;;;;6.03;2.80;;;;;;;5.99;75.36;101907.14;1744942;80;21786;-67
2021/09/06 03:46:05;;;;;;;7.42;3.72;;;;;;;6.04;74.91;101916.16;1744494;81;20964;-67
2021/09/06 03:48:32;;;;;;;5.17;3.60;;;;;;;6.06;74.60;101914.38;1744947;80;20889;-67
2021/09/06 03:51:01;;;;;;;7.12;3.47;;;;;;;6.10;74.41;101917.79;1744512;81;20905;-67
2021/09/06 03:53:30;;;;;;;5.87;3.33;;;;;;;6.11;74.21;101916.89;1744574;81;20921;-67
2021/09/06 03:55:57;;;;;;;10.75;3.72;;;;;;;6.12;74.07;101922.53;1744632;81;22031;-66
2021/09/06 03:58:24;;;;;;;8.70;3.98;;;;;;;6.11;74.06;101923.40;1744554;81;20984;-67
2021/09/06 04:00:51;;;;;;;7.92;3.77;;;;;;;6.08;74.07;101925.63;1744537;82;20861;-68
2021/09/06 04:03:18;;;;;;;7.30;4.05;;;;;;;6.07;74.15;101928.25;1744806;81;20914;-67
2021/09/06 04:05:46;;;;;;;9.63;4.42;;;;;;;6.06;74.34;101929.16;1744540;81;20908;-66
2021/09/06 04:08:18;;;;;;;5.87;3.40;;;;;;;6.05;74.63;101932.21;1744497;81;22042;-70
2021/09/06 04:10:43;;;;;;;11.08;3.70;;;;;;;6.06;74.84;101930.00;1744006;81;21450;-66
2021/09/06 04:13:11;;;;;;;9.98;3.72;;;;;;;6.08;75.06;101932.14;1744505;81;20897;-66
2021/09/06 04:15:38;;;;;;;11.83;3.58;;;;;;;6.13;75.17;101934.64;1744433;81;20928;-67
2021/09/06 04:18:05;;;;;;;14.47;3.80;;;;;;;6.19;75.27;101932.77;1744829;81;21473;-68
2021/09/06 04:20:32;;;;;;;5.25;2.92;;;;;;;6.28;75.31;101938.70;1744539;82;21516;-68
2021/09/06 04:22:59;;;;;;;20.57;5.62;;;;;;;6.36;75.37;101933.73;1744750;80;20853;-74
2021/09/06 04:25:28;;;;;;;11.68;3.75;;;;;;;6.47;75.49;101941.75;1744677;82;20897;-76
2021/09/06 04:27:54;;;;;;;7.67;3.52;;;;;;;6.56;75.63;101939.82;1744741;81;20987;-75
2021/09/06 04:30:21;;;;;;;9.45;3.47;;;;;;;6.69;75.54;101947.34;1744542;81;20893;-75
2021/09/06 04:32:49;;;;;;;5.70;3.25;;;;;;;6.80;75.55;101942.75;1744514;81;21142;-76
2021/09/06 04:35:16;;;;;;;16.20;4.30;;;;;;;6.93;75.52;101942.02;1744284;81;20936;-74
2021/09/06 04:37:43;;;;;;;31.33;5.87;;;;;;;7.04;75.48;101940.02;1745226;80;21376;-74
2021/09/06 04:40:13;;;;;;;16.45;4.22;;;;;;;7.15;75.56;101936.70;1744558;81;20916;-75
2021/09/06 04:42:40;;;;;;;23.47;4.78;;;;;;;7.32;75.58;101937.59;1734580;82;21374;-76
2021/09/06 04:45:09;;;;;;;33.53;5.85;;;;;;;7.57;75.60;101936.97;1745002;81;21489;-74
2021/09/06 04:47:39;;;;;;;25.57;5.08;;;;;;;7.91;75.28;101939.97;1745075;81;20982;-74
2021/09/06 04:50:07;;;;;;;14.60;4.40;;;;;;;8.35;74.58;101938.70;1744470;81;20940;-76
2021/09/06 04:52:34;;;;;;;27.30;4.90;;;;;;;8.86;73.51;101936.73;1744749;80;21015;-74
2021/09/06 04:55:03;;;;;;;28.10;6.12;;;;;;;9.43;72.29;101936.20;1744527;80;20845;-75
2021/09/06 04:57:31;;;;;;;16.90;4.87;;;;;;;10.20;70.86;101936.53;1744896;81;21129;-75
2021/09/06 04:59:58;;;;;;;14.80;3.85;;;;;;;11.07;68.65;101941.48;1753531;80;21434;-74
2021/09/06 05:02:26;;;;;;;10.20;4.40;;;;;;;11.96;66.30;101939.02;1757655;81;20990;-70
2021/09/06 05:04:53;;;;;;;19.75;5.95;;;;;;;12.80;63.89;101936.89;1757710;81;21030;-72
2021/09/06 05:07:20;;;;;;;18.27;3.80;;;;;;;13.58;61.66;101929.06;1758153;81;21370;-72
2021/09/06 05:09:47;;;;;;;7.75;2.92;;;;;;;14.37;59.34;101930.20;1757758;81;21184;-69
2021/09/06 05:12:15;;;;;;;11.90;3.12;;;;;;;15.09;57.10;101934.08;1740822;81;21021;-71
2021/09/06 05:14:42;;;;;;;11.08;2.72;;;;;;;15.75;55.19;101931.52;1757954;81;20857;-70
2021/09/06 05:17:12;;;;;;;3.33;2.42;;;;;;;16.41;53.38;101938.02;1757861;81;20872;-72
2021/09/06 05:19:40;;;;;;;10.03;2.70;;;;;;;17.11;51.66;101939.70;1756588;81;20966;-68
2021/09/06 05:22:08;;;;;;;6.78;2.67;;;;;;;17.76;50.17;101940.14;1757644;81;21537;-68
2021/09/06 05:24:37;;;;;;;9.48;2.77;;;;;;;18.28;48.62;101940.50;1757791;81;20982;-67
2021/09/06 05:27:05;;;;;;;23.32;6.30;;;;;;;18.70;47.45;101943.67;1758175;81;20884;-67
2021/09/06 05:29:32;;;;;;;15.20;4.12;;;;;;;19.07;46.41;101944.11;1757678;81;21240;-68
2021/09/06 05:32:00;;;;;;;12.40;4.08;;;;;;;19.49;44.93;101949.31;1740803;81;20896;-67
2021/09/06 05:34:27;;;;;;;12.88;2.58;;;;;;;19.88;44.31;101947.23;1757735;81;21947;-68
2021/09/06 05:36:54;;;;;;;6.17;2.58;;;;;;;20.27;43.29;101951.20;1757779;81;20995;-66
2021/09/06 05:39:21;;;;;;;8.05;2.30;;;;;;;20.61;42.46;101945.87;1740673;81;20912;-66
2021/09/06 05:41:55;;;;;;;8.13;2.00;;;;;;;20.93;41.78;101947.70;1749222;81;20952;-67
2021/09/06 05:44:22;;;;;;;6.33;1.92;;;;;;;21.23;41.15;101955.44;1757574;81;20924;-66
2021/09/06 05:46:49;;;;;;;2.58;1.72;;;;;;;21.47;40.75;101948.55;1757974;81;21100;-66
2021/09/06 05:49:16;;;;;;;2.35;1.60;;;;;;;21.74;39.89;101950.67;1757801;81;20959;-67
2021/09/06 05:51:44;;;;;;;8.45;2.22;;;;;;;22.04;39.31;101955.19;1757825;81;20924;-68
2021/09/06 05:54:16;;;;;;;2.27;1.40;;;;;;;22.29;38.86;101951.71;1757622;81;20971;-67
2021/09/06 05:56:43;;;;;;;5.45;1.45;;;;;;;22.59;38.38;101956.63;1758222;80;20885;-66
2021/09/06 05:59:10;;;;;;;3.02;1.57;;;;;;;22.92;37.74;101959.41;1757632;81;21123;-68
2021/09/06 06:01:37;;;;;;;2.95;1.42;;;;;;;23.20;37.13;101956.92;1757727;80;20932;-68
2021/09/06 06:04:04;;;;;;;3.33;1.75;;;;;;;23.47;36.69;101957.02;1758128;80;20951;-68
2021/09/06 06:06:33;;;;;;;3.47;1.57;;;;;;;23.71;36.34;101960.55;1758961;81;20924;-68
2021/09/06 06:09:02;;;;;;;2.35;1.50;;;;;;;23.91;35.92;101951.98;1758353;80;20900;-67
2021/09/06 06:11:30;;;;;;;2.83;1.55;;;;;;;24.07;35.30;101954.54;1758032;81;21521;-69
2021/09/06 06:13:57;;;;;;;1.65;1.55;;;;;;;24.26;35.10;101957.64;1757908;80;21088;-68
2021/09/06 06:16:25;;;;;;;2.83;1.40;;;;;;;24.52;34.23;101958.64;1757765;80;21405;-68
2021/09/06 06:18:54;;;;;;;2.65;1.70;;;;;;;24.74;33.62;101960.52;1757690;80;21500;-68
2021/09/06 06:21:24;;;;;;;7.83;1.55;;;;;;;24.89;33.14;101965.70;1757792;81;20999;-69
2021/09/06 06:23:54;;;;;;;4.95;1.90;;;;;;;25.06;33.12;101967.19;1756729;81;21527;-68
2021/09/06 06:26:34;;;;;;;1.82;1.20;;;;;;;25.23;32.39;101968.58;1755936;81;21014;-67
2021/09/06 06:29:02;;;;;;;1.62;1.25;;;;;;;25.48;31.99;101973.27;1758103;81;20936;-68
2021/09/06 06:31:30;;;;;;;1.50;1.25;;;;;;;25.69;31.75;101975.09;1757826;81;20943;-68
2021/09/06 06:33:58;;;;;;;2.90;1.12;;;;;;;25.86;31.11;101972.02;1757752;80;21406;-68
2021/09/06 06:36:25;;;;;;;1.80;0.90;;;;;;;26.03;30.84;101970.27;1757769;81;21117;-68
2021/09/06 06:38:53;;;;;;;2.42;1.90;;;;;;;26.15;30.43;101973.03;1757576;80;20912;-69
2021/09/06 06:41:20;;;;;;;1.05;0.95;;;;;;;26.29;30.49;101978.28;1740694;81;20893;-68
2021/09/06 06:43:50;;;;;;;1.30;0.98;;;;;;;26.36;29.92;101974.45;1757573;80;20900;-69
2021/09/06 06:46:18;;;;;;;0.90;0.90;;;;;;;26.42;29.63;101977.33;1758102;81;20912;-68
2021/09/06 06:48:48;;;;;;;1.75;1.10;;;;;;;26.51;29.53;101977.36;1758047;80;21198;-68
2021/09/06 06:51:16;;;;;;;1.30;1.20;;;;;;;26.69;29.60;101975.41;1758325;80;21480;-69
2021/09/06 06:53:45;;;;;;;5.97;1.10;;;;;;;26.78;29.47;101970.38;1758749;81;20920;-69
2021/09/06 06:56:15;;;;;;;2.98;0.93;;;;;;;26.83;29.38;101976.60;1758113;81;21560;-70
2021/09/06 06:58:44;;;;;;;0.55;0.55;;;;;;;26.96;29.12;101976.95;1758066;81;21524;-70
2021/09/06 07:01:13;;;;;;;1.02;0.72;;;;;;;27.18;28.55;101978.66;1745262;80;21137;-68
2021/09/06 07:03:42;;;;;;;1.15;1.00;;;;;;;27.35;27.99;101980.38;1744641;81;20949;-68
2021/09/06 07:06:09;;;;;;;1.55;0.88;;;;;;;27.45;27.80;101978.33;1744754;80;20972;-70
2021/09/06 07:08:38;;;;;;;1.15;0.70;;;;;;;27.61;27.55;101973.41;1744902;81;21022;-70
2021/09/06 07:11:06;;;;;;;0.90;0.75;;;;;;;27.64;27.60;101976.30;1744865;80;21359;-68
2021/09/06 07:13:34;;;;;;;3.42;0.90;;;;;;;27.70;27.71;101980.49;1744767;81;21076;-68
2021/09/06 07:16:04;;;;;;;2.20;0.95;;;;;;;27.85;27.24;101973.06;1744444;80;20948;-67
2021/09/06 07:18:31;;;;;;;1.10;0.95;;;;;;;27.99;27.05;101978.23;1744672;81;21474;-69
2021/09/06 07:20:59;;;;;;;0.95;0.85;;;;;;;28.04;26.64;101975.36;1744592;81;20917;-70
2021/09/06 07:23:28;;;;;;;2.87;0.93;;;;;;;28.11;26.58;101977.69;1744526;81;21468;-68
2021/09/06 07:25:55;;;;;;;2.02;1.05;;;;;;;28.20;26.26;101968.22;1744550;81;21545;-69
2021/09/06 07:28:22;;;;;;;1.25;0.88;;;;;;;28.07;25.76;101966.08;1744378;82;20877;-68
2021/09/06 07:30:49;;;;;;;1.72;0.90;;;;;;;28.07;26.26;101962.86;1744588;80;20881;-67
2021/09/06 07:33:15;;;;;;;5.67;0.68;;;;;;;28.20;26.49;101971.75;1744707;82;20973;-67
2021/09/06 07:35:42;;;;;;;1.80;1.07;;;;;;;28.37;26.12;101968.48;1744648;81;20853;-68
2021/09/06 07:38:10;;;;;;;2.87;2.15;;;;;;;28.48;25.72;101969.94;1744725;82;22358;-67
2021/09/06 07:40:37;;;;;;;4.10;3.60;;;;;;;28.68;25.87;101975.73;1744823;81;20968;-69
2021/09/06 07:43:04;;;;;;;5.12;2.42;;;;;;;28.86;25.60;101970.90;1744625;81;21505;-69
2021/09/06 07:45:31;;;;;;;3.30;0.90;;;;;;;29.07;25.25;101976.97;1744552;81;20932;-69
2021/09/06 07:47:58;;;;;;;1.40;0.70;;;;;;;29.17;24.13;101970.50;1744673;81;21085;-67
2021/09/06 07:50:27;;;;;;;2.67;0.88;;;;;;;29.19;24.12;101967.11;1743978;81;21502;-67
2021/09/06 07:52:54;;;;;;;1.00;0.53;;;;;;;29.18;24.27;101963.57;1744469;81;20964;-66
2021/09/06 07:55:21;;;;;;;3.25;1.00;;;;;;;29.21;23.89;101967.25;1744854;81;21303;-67
2021/09/06 07:57:47;;;;;;;2.10;1.02;;;;;;;29.18;23.59;101968.98;1744504;81;20945;-67
2021/09/06 08:00:15;;;;;;;1.30;1.00;;;;;;;29.21;23.59;101967.25;1749187;81;20923;-67
2021/09/06 08:02:48;;;;;;;3.27;1.07;;;;;;;29.18;23.61;101962.74;1757894;81;21492;-67
2021/09/06 08:05:12;;;;;;;1.85;0.80;;;;;;;29.22;24.17;101961.36;1757497;81;20825;-68
2021/09/06 08:07:41;;;;;;;3.27;1.15;;;;;;;29.42;23.66;101965.73;1757655;81;20896;-67
2021/09/06 08:10:08;;;;;;;1.32;0.70;;;;;;;29.56;23.89;101959.49;1758171;80;22413;-67
2021/09/06 08:12:37;;;;;;;0.93;0.75;;;;;;;29.60;22.53;101958.10;1757875;80;20971;-66
2021/09/06 08:15:06;;;;;;;1.22;0.60;;;;;;;29.44;22.76;101956.93;1758159;80;21125;-67
2021/09/06 08:17:34;;;;;;;0.68;0.65;;;;;;;29.45;23.26;101959.42;1758105;81;20975;-66
2021/09/06 08:20:11;;;;;;;2.95;0.72;;;;;;;29.60;22.96;101955.39;1757815;81;20900;-65
2021/09/06 08:22:38;;;;;;;1.07;0.72;;;;;;;29.68;23.03;101955.81;1740606;80;20964;-67
2021/09/06 08:25:07;;;;;;;1.67;1.12;;;;;;;29.79;22.21;101955.89;1758306;81;21342;-67
2021/09/06 08:27:34;;;;;;;1.32;1.10;;;;;;;29.77;22.31;101952.05;1757926;81;21790;-67
2021/09/06 08:30:00;;;;;;;1.35;1.22;;;;;;;29.70;22.28;101947.89;1757974;80;21027;-67
2021/09/06 08:32:27;;;;;;;1.12;0.90;;;;;;;29.77;23.07;101941.23;1757939;81;20908;-66
2021/09/06 08:34:54;;;;;;;2.37;0.90;;;;;;;29.48;22.47;101938.80;1757997;81;21533;-67
2021/09/06 08:37:22;;;;;;;1.57;0.95;;;;;;;28.68;22.72;101940.62;1757831;81;20865;-67
2021/09/06 08:39:49;;;;;;;0.93;0.68;;;;;;;27.82;23.12;101939.68;1758110;80;21106;-68
2021/09/06 08:42:18;;;;;;;1.12;0.75;;;;;;;27.37;24.20;101941.11;1757707;81;20936;-66
2021/09/06 08:44:45;;;;;;;1.12;0.50;;;;;;;27.32;24.47;101941.63;1758169;81;20919;-67
2021/09/06 08:47:16;;;;;;;2.05;0.82;;;;;;;27.33;24.77;101939.28;1757984;81;20955;-67
2021/09/06 08:49:46;;;;;;;4.50;1.00;;;;;;;27.45;24.02;101935.20;1757771;81;21006;-67
2021/09/06 08:52:13;;;;;;;2.35;0.60;;;;;;;27.48;24.02;101938.92;1757882;81;21544;-67
2021/09/06 08:54:42;;;;;;;2.08;0.62;;;;;;;27.56;23.63;101930.48;1757729;81;20908;-68
2021/09/06 08:57:10;;;;;;;3.35;0.45;;;;;;;27.40;23.71;101927.32;1757670;81;20873;-67
2021/09/06 08:59:44;;;;;;;7.85;1.00;;;;;;;27.43;24.12;101928.31;1757979;81;21401;-68
2021/09/06 09:02:19;;;;;;;1.82;0.60;;;;;;;27.65;23.51;101923.54;1743871;80;20944;-67
2021/09/06 09:05:03;;;;;;;3.35;0.50;;;;;;;28.03;24.04;101918.89;1743396;81;21135;-68
2021/09/06 09:07:34;;;;;;;0.70;0.45;;;;;;;28.39;23.30;101923.27;1743466;81;20964;-67
2021/09/06 09:10:32;;;;;;;4.05;1.05;;;;;;;28.72;23.32;101921.22;1744533;81;20940;-66
2021/09/06 09:13:09;;;;;;;0.98;0.60;;;;;;;28.93;22.91;101920.53;1718970;81;20897;-68
2021/09/06 09:15:40;;;;;;;2.37;0.40;;;;;;;29.11;23.01;101925.64;1743181;81;20925;-67
2021/09/06 09:18:27;;;;;;;2.42;0.50;;;;;;;29.26;22.62;101914.00;1688796;82;21193;-67
2021/09/06 09:21:12;;;;;;;1.82;0.90;;;;;;;29.40;22.91;101918.61;1744235;81;21354;-68
2021/09/06 09:24:01;;;;;;;2.40;1.10;;;;;;;29.52;23.32;101917.63;1742811;81;20929;-67
2021/09/06 09:26:29;;;;;;;1.17;0.75;;;;;;;29.61;23.06;101917.86;1744293;81;20937;-68
2021/09/06 09:29:20;;;;;;;0.85;0.50;;;;;;;29.75;22.53;101914.36;1744379;81;20917;-68
2021/09/06 09:31:50;;;;;;;2.33;0.47;;;;;;;29.71;21.70;101911.70;1743153;81;21972;-67
2021/09/06 09:34:20;;;;;;;1.62;0.45;;;;;;;29.51;20.96;101918.66;1729972;81;21011;-67
2021/09/06 09:37:04;;;;;;;0.45;0.40;;;;;;;29.33;21.25;101914.45;1744124;81;20885;-68
2021/09/06 09:39:33;;;;;;;0.60;0.60;;;;;;;29.29;20.88;101910.95;1744664;81;21410;-68
2021/09/06 09:42:10;;;;;;;0.55;0.50;;;;;;;29.25;21.10;101910.47;1744820;82;21395;-68
2021/09/06 09:44:49;;;;;;;1.60;0.65;;;;;;;29.28;21.22;101902.50;1744928;81;21422;-67
2021/09/06 09:47:26;;;;;;;1.07;0.40;;;;;;;29.33;21.65;101911.75;1743341;81;20885;-67
2021/09/06 09:49:55;;;;;;;0.57;0.57;;;;;;;29.50;22.12;101907.02;1744501;81;21375;-66
2021/09/06 09:52:22;;;;;;;0.60;0.45;;;;;;;29.30;21.53;101908.08;1744429;82;20890;-66
2021/09/06 09:54:56;;;;;;;0.90;0.30;;;;;;;28.80;21.31;101912.20;1744742;80;20913;-68
2021/09/06 09:57:25;;;;;;;0.60;0.37;;;;;;;28.32;21.57;101911.48;1744015;81;21137;-67
2021/09/06 09:59:52;;;;;;;1.12;0.70;;;;;;;27.63;21.77;101910.73;1744756;81;21541;-67
2021/09/06 10:02:27;;;;;;;2.08;0.70;;;;;;;27.11;22.25;101908.98;1755326;80;21439;-67
2021/09/06 10:05:06;;;;;;;1.27;0.62;;;;;;;26.37;22.76;101904.35;1757723;81;20927;-69
2021/09/06 10:07:38;;;;;;;8.08;1.37;;;;;;;25.78;23.77;101904.27;1757913;81;21354;-67
2021/09/06 10:10:17;;;;;;;1.37;0.62;;;;;;;25.30;24.33;101911.53;1757650;81;21437;-68
2021/09/06 10:12:46;;;;;;;4.10;0.60;;;;;;;24.68;24.90;101912.84;1757997;81;20924;-69
2021/09/06 10:15:14;;;;;;;1.75;0.40;;;;;;;24.44;25.66;101906.72;1757791;81;20896;-70
2021/09/06 10:17:48;;;;;;;1.27;0.60;;;;;;;24.56;26.10;101909.55;1758187;81;20904;-70
2021/09/06 10:20:24;;;;;;;3.00;0.80;;;;;;;24.78;26.03;101908.25;1757905;80;20892;-70
2021/09/06 10:23:06;;;;;;;0.70;0.57;;;;;;;24.98;25.17;101908.92;1758274;81;21774;-69
2021/09/06 10:25:36;;;;;;;11.12;1.72;;;;;;;24.93;25.51;101904.02;1757991;81;21389;-69
2021/09/06 10:28:06;;;;;;;30.23;3.40;;;;;;;24.81;26.14;101906.11;1757860;81;21014;-69
2021/09/06 10:30:48;;;;;;;3.60;1.40;;;;;;;24.67;25.72;101908.48;1758217;80;21465;-69
2021/09/06 10:33:36;;;;;;;17.30;1.82;;;;;;;24.61;25.70;101901.88;1757840;81;20892;-70
2021/09/06 10:36:09;;;;;;;1.52;0.50;;;;;;;24.79;25.93;101897.87;1758181;81;21106;-72
2021/09/06 10:38:44;;;;;;;4.37;0.95;;;;;;;25.10;24.97;101895.61;1757813;81;21014;-70
2021/09/06 10:41:19;;;;;;;1.40;0.50;;;;;;;25.48;24.87;101894.02;1758479;81;20939;-71
2021/09/06 10:43:57;;;;;;;3.12;0.70;;;;;;;25.80;24.14;101890.68;1757946;81;20987;-68
2021/09/06 10:46:26;;;;;;;1.12;0.90;;;;;;;25.82;23.50;101890.85;1758196;80;20880;-70
2021/09/06 10:48:54;;;;;;;2.65;1.07;;;;;;;25.61;23.49;101896.64;1757944;81;21084;-71
2021/09/06 10:51:27;;;;;;;1.20;0.70;;;;;;;25.14;23.63;101899.64;1757801;80;20908;-69
2021/09/06 10:53:58;;;;;;;1.12;0.68;;;;;;;24.80;24.27;101898.20;1757915;81;21472;-70
2021/09/06 10:56:28;;;;;;;0.82;0.60;;;;;;;24.51;24.79;101893.08;1758192;80;20976;-71
2021/09/06 10:58:55;;;;;;;2.30;0.78;;;;;;;24.24;25.21;101891.26;1757916;80;20956;-69
2021/09/06 11:01:22;;;;;;;1.20;0.55;;;;;;;23.96;26.09;101885.39;1757874;81;21055;-70
2021/09/06 11:03:51;;;;;;;3.20;0.75;;;;;;;23.88;26.16;101886.66;1757764;81;21397;-69
2021/09/06 11:06:23;;;;;;;1.32;0.72;;;;;;;23.93;25.95;101879.00;1758050;81;20929;-70
2021/09/06 11:08:51;;;;;;;1.32;0.65;;;;;;;24.12;25.55;101880.75;1757767;81;20932;-70
2021/09/06 11:11:18;;;;;;;0.82;0.80;;;;;;;24.13;24.97;101879.73;1757754;81;21022;-68
2021/09/06 11:13:48;;;;;;;1.05;0.93;;;;;;;24.02;25.39;101879.11;1757869;81;21437;-67
2021/09/06 11:16:18;;;;;;;3.87;0.75;;;;;;;23.77;26.26;101878.81;1757916;80;21092;-69
2021/09/06 11:18:48;;;;;;;1.72;0.50;;;;;;;23.57;26.90;101884.20;1758048;81;20916;-70
2021/09/06 11:21:19;;;;;;;2.62;0.35;;;;;;;23.46;26.79;101879.53;1757981;81;20857;-68
2021/09/06 11:23:46;;;;;;;0.82;0.70;;;;;;;23.40;26.91;101870.73;1741674;81;20987;-68
2021/09/06 11:26:29;;;;;;;4.80;0.40;;;;;;;23.38;27.13;101877.56;1757740;81;21569;-67
2021/09/06 11:28:56;;;;;;;1.60;0.40;;;;;;;23.42;26.87;101875.45;1757839;81;21490;-69
2021/09/06 11:31:26;;;;;;;1.92;0.55;;;;;;;23.48;26.48;101876.22;1757828;80;20932;-70
2021/09/06 11:34:04;;;;;;;2.55;0.70;;;;;;;23.53;25.92;101866.73;1757818;81;20916;-70
2021/09/06 11:36:33;;;;;;;1.30;0.60;;;;;;;23.49;26.82;101873.87;1758129;81;20856;-69
2021/09/06 11:39:00;;;;;;;0.88;0.82;;;;;;;23.30;26.85;101878.77;1758049;80;21144;-68